Time;durP1;ratioP1;P1;durP2;ratioP2;P2;SDS_P1;SDS_P2;PMS_P1;PMS_P2;Temp;Humidity;BMP_temperature;BMP_pressure;BME280_temperature;BME280_humidity;BME280_pressure;Samples;Min_cycle;Max_cycle;Signal;HPM_P1;HPM_P2
2022/05/21 00:01:07;;;;;;;0.65;0.40;;;17.20;99.90;;;;;;5050821;28;20025;-68
2022/05/21 00:03:32;;;;;;;1.33;0.73;;;17.20;99.90;;;;;;5032280;28;20121;-68
2022/05/21 00:05:58;;;;;;;2.38;0.55;;;17.20;99.90;;;;;;5032648;28;20386;-67
2022/05/21 00:08:24;;;;;;;3.17;0.50;;;17.30;99.90;;;;;;5050043;28;20029;-68
2022/05/21 00:10:49;;;;;;;1.10;0.52;;;17.30;99.90;;;;;;5032845;28;20031;-68
2022/05/21 00:13:15;;;;;;;4.10;0.82;;;17.20;99.90;;;;;;5032796;28;20068;-68
2022/05/21 00:15:41;;;;;;;1.10;0.50;;;17.20;99.90;;;;;;5049542;28;20486;-68
2022/05/21 00:18:07;;;;;;;2.55;0.60;;;17.20;99.90;;;;;;5032432;28;20120;-68
2022/05/21 00:20:48;;;;;;;2.72;0.50;;;17.20;99.90;;;;;;5031805;28;20093;-68
2022/05/21 00:23:24;;;;;;;2.40;1.23;;;17.20;99.90;;;;;;5032515;28;20025;-68
2022/05/21 00:26:00;;;;;;;1.73;0.65;;;17.20;99.90;;;;;;5032533;28;20493;-68
2022/05/21 00:28:27;;;;;;;3.13;1.25;;;17.10;99.90;;;;;;5049787;28;20029;-68
2022/05/21 00:30:53;;;;;;;0.63;0.45;;;17.00;99.90;;;;;;5050126;28;20025;-68
2022/05/21 00:33:20;;;;;;;0.90;0.60;;;16.90;99.90;;;;;;5032303;28;20025;-68
2022/05/21 00:35:50;;;;;;;3.22;0.70;;;16.80;99.90;;;;;;5032175;28;20033;-67
2022/05/21 00:38:16;;;;;;;2.92;0.90;;;16.80;99.90;;;;;;5050058;28;20116;-67
2022/05/21 00:40:42;;;;;;;13.95;1.65;;;16.70;99.90;;;;;;5052617;28;20431;-68
2022/05/21 00:43:36;;;;;;;12.35;2.70;;;16.70;99.90;;;;;;5053654;28;20478;-68
2022/05/21 00:46:27;;;;;;;1.50;0.90;;;16.90;99.90;;;;;;5035794;28;20498;-68
2022/05/21 00:49:13;;;;;;;3.55;1.67;;;16.80;99.90;;;;;;5034861;28;20060;-68
2022/05/21 00:51:44;;;;;;;2.33;1.23;;;17.00;99.90;;;;;;5035296;28;20059;-68
2022/05/21 00:54:11;;;;;;;3.95;1.20;;;17.00;99.90;;;;;;5053535;28;20115;-68
2022/05/21 00:56:45;;;;;;;3.30;1.00;;;16.70;99.90;;;;;;5053203;28;20037;-67
2022/05/21 01:01:58;;;;;;;2.88;1.00;;;16.80;99.90;;;;;;5038104;28;20484;-67
2022/05/21 01:04:25;;;;;;;1.13;0.90;;;16.70;99.90;;;;;;5034616;28;20040;-68
2022/05/21 01:06:54;;;;;;;1.17;0.63;;;16.70;99.90;;;;;;5035250;28;20076;-67
2022/05/21 01:09:19;;;;;;;1.80;0.90;;;16.80;99.90;;;;;;5035386;28;20032;-67
2022/05/21 01:11:45;;;;;;;9.32;0.93;;;16.80;99.90;;;;;;5052551;28;20021;-67
2022/05/21 01:14:12;;;;;;;4.22;0.65;;;16.80;99.90;;;;;;5035454;28;20020;-68
2022/05/21 01:16:37;;;;;;;2.28;0.75;;;16.80;99.90;;;;;;5034150;28;20135;-68
2022/05/21 01:19:08;;;;;;;2.88;0.88;;;16.70;99.90;;;;;;5035389;28;20123;-68
2022/05/21 01:21:35;;;;;;;4.32;1.25;;;16.60;99.90;;;;;;5052415;28;20025;-66
2022/05/21 01:24:01;;;;;;;5.97;2.00;;;16.40;99.90;;;;;;5034999;28;20087;-67
2022/05/21 01:26:27;;;;;;;1.17;0.77;;;16.40;99.90;;;;;;5034045;28;20037;-66
2022/05/21 01:28:54;;;;;;;2.35;0.98;;;16.30;99.90;;;;;;5035129;28;20548;-67
2022/05/21 01:31:20;;;;;;;2.55;1.08;;;16.20;99.90;;;;;;5052700;28;20367;-68
2022/05/21 01:33:46;;;;;;;1.90;1.20;;;16.40;99.90;;;;;;5052227;28;20149;-66
2022/05/21 01:36:14;;;;;;;2.50;0.70;;;16.30;99.90;;;;;;5034980;28;20029;-67
2022/05/21 01:38:40;;;;;;;2.65;0.90;;;16.50;99.90;;;;;;5052251;28;20029;-67
2022/05/21 01:41:09;;;;;;;4.38;1.02;;;16.40;99.90;;;;;;5034873;28;20029;-66
2022/05/21 01:46:20;;;;;;;3.97;0.80;;;16.50;99.90;;;;;;5052623;28;20083;-66
2022/05/21 01:48:46;;;;;;;6.80;2.35;;;16.50;99.90;;;;;;5033606;28;20124;-67
2022/05/21 01:51:13;;;;;;;2.78;0.88;;;16.40;99.90;;;;;;5051330;28;20059;-67
2022/05/21 01:53:41;;;;;;;3.97;1.63;;;16.40;99.90;;;;;;5033762;28;20574;-66
2022/05/21 01:56:08;;;;;;;4.57;1.40;;;16.30;99.90;;;;;;5034455;28;20025;-66
2022/05/21 01:58:34;;;;;;;3.78;1.40;;;16.30;99.90;;;;;;5051595;28;20041;-67
2022/05/21 02:01:00;;;;;;;3.67;1.58;;;16.30;99.90;;;;;;5052536;28;20025;-68
2022/05/21 02:03:26;;;;;;;3.45;1.20;;;16.30;99.90;;;;;;5052414;28;20025;-67
2022/05/21 02:05:53;;;;;;;5.53;1.45;;;16.20;99.90;;;;;;5033908;28;20489;-67
2022/05/21 02:08:19;;;;;;;4.32;1.38;;;16.20;99.90;;;;;;5052133;28;20478;-66
2022/05/21 02:10:46;;;;;;;2.97;1.52;;;16.10;99.90;;;;;;5033851;28;20394;-67
2022/05/21 02:13:14;;;;;;;2.00;1.52;;;16.10;99.90;;;;;;5052419;28;20039;-67
2022/05/21 02:15:40;;;;;;;5.63;1.42;;;16.10;99.90;;;;;;5051109;28;20055;-67
2022/05/21 02:18:06;;;;;;;4.32;1.98;;;16.20;99.90;;;;;;5034152;28;20116;-66
2022/05/21 02:20:31;;;;;;;2.15;1.55;;;16.00;99.90;;;;;;5051534;28;20032;-67
2022/05/21 02:22:57;;;;;;;2.13;1.65;;;16.00;99.90;;;;;;5034148;28;20029;-67
2022/05/21 02:25:23;;;;;;;6.18;1.40;;;16.00;99.90;;;;;;5052461;28;20517;-67
2022/05/21 02:27:49;;;;;;;3.05;1.70;;;16.00;99.90;;;;;;5033198;28;20390;-68
2022/05/21 02:30:15;;;;;;;2.42;1.60;;;16.00;99.90;;;;;;5051773;28;20028;-67
2022/05/21 02:32:41;;;;;;;4.63;1.48;;;16.10;99.90;;;;;;5033253;28;20443;-67
2022/05/21 02:35:07;;;;;;;2.08;1.67;;;16.10;99.90;;;;;;5033853;28;20454;-67
2022/05/21 02:40:17;;;;;;;2.92;1.40;;;15.80;99.90;;;;;;5051537;28;20039;-67
2022/05/21 02:42:48;;;;;;;2.83;1.70;;;15.80;99.90;;;;;;5032931;28;20417;-66
2022/05/21 02:45:20;;;;;;;5.18;1.67;;;15.80;99.90;;;;;;5051074;28;20041;-67
2022/05/21 02:47:46;;;;;;;4.80;1.35;;;15.70;99.90;;;;;;5032384;28;20044;-66
2022/05/21 02:50:14;;;;;;;2.42;1.67;;;15.60;99.90;;;;;;5051233;28;20036;-67
2022/05/21 02:52:40;;;;;;;2.17;1.60;;;15.60;99.90;;;;;;5032721;28;20078;-67
2022/05/21 02:55:07;;;;;;;1.95;1.38;;;15.60;99.90;;;;;;5033299;28;20033;-67
2022/05/21 02:57:33;;;;;;;5.05;2.78;;;15.60;99.90;;;;;;5032651;28;20029;-66
2022/05/21 03:00:18;;;;;;;3.28;2.50;;;15.60;99.90;;;;;;5033018;28;20070;-66
2022/05/21 03:02:44;;;;;;;1.90;1.80;;;15.60;99.90;;;;;;5050161;28;20032;-66
2022/05/21 03:05:11;;;;;;;3.30;2.00;;;15.60;99.90;;;;;;5033002;28;20480;-67
2022/05/21 03:07:38;;;;;;;2.65;1.63;;;15.60;99.90;;;;;;5050528;28;20029;-67
2022/05/21 03:10:23;;;;;;;4.30;2.00;;;15.60;99.90;;;;;;5051012;28;20036;-67
2022/05/21 03:13:00;;;;;;;2.40;1.60;;;15.50;99.90;;;;;;5032491;28;20025;-67
2022/05/21 03:15:38;;;;;;;3.67;2.03;;;15.60;99.90;;;;;;5050473;28;20049;-68
2022/05/21 03:18:07;;;;;;;2.55;1.90;;;15.50;99.90;;;;;;5051003;28;20041;-66
2022/05/21 03:20:33;;;;;;;13.13;2.50;;;15.30;99.90;;;;;;5050155;28;20025;-67
2022/05/21 03:22:59;;;;;;;4.93;2.55;;;15.40;99.90;;;;;;5050402;28;20060;-67
2022/05/21 03:25:25;;;;;;;6.35;2.53;;;15.50;99.90;;;;;;5050313;28;20056;-67
2022/05/21 03:27:51;;;;;;;3.17;2.55;;;15.40;99.90;;;;;;5049637;28;20781;-67
2022/05/21 03:30:19;;;;;;;10.10;3.40;;;15.50;99.90;;;;;;5050585;28;20451;-67
2022/05/21 03:32:45;;;;;;;2.75;2.50;;;15.40;99.90;;;;;;5031783;28;20036;-67
2022/05/21 03:35:12;;;;;;;2.92;2.47;;;15.50;99.90;;;;;;5050987;28;20045;-66
2022/05/21 03:37:39;;;;;;;4.72;3.30;;;15.40;99.90;;;;;;5032239;28;20115;-67
2022/05/21 03:40:07;;;;;;;3.03;2.63;;;15.40;99.90;;;;;;5050818;28;20108;-68
2022/05/21 03:42:32;;;;;;;2.85;2.60;;;15.40;99.90;;;;;;5049837;28;20435;-74
2022/05/21 03:44:58;;;;;;;4.82;2.65;;;15.40;99.90;;;;;;5032815;28;20108;-66
2022/05/21 03:47:24;;;;;;;4.25;2.50;;;15.30;99.90;;;;;;5032716;28;20415;-67
2022/05/21 03:49:49;;;;;;;4.88;2.72;;;15.40;99.90;;;;;;5049953;28;20021;-67
2022/05/21 03:52:15;;;;;;;2.83;2.20;;;15.40;99.90;;;;;;5050467;28;20071;-67
2022/05/21 03:54:41;;;;;;;3.17;2.10;;;15.30;99.90;;;;;;5050098;28;20079;-67
2022/05/21 03:57:07;;;;;;;3.88;2.50;;;15.30;99.90;;;;;;5032430;28;20033;-67
2022/05/21 03:59:34;;;;;;;3.40;2.75;;;15.40;99.90;;;;;;5032558;28;20036;-67
2022/05/21 04:02:01;;;;;;;7.47;3.58;;;15.40;99.90;;;;;;5032484;28;20026;-67
2022/05/21 04:04:27;;;;;;;3.85;2.47;;;15.30;99.90;;;;;;5032500;28;20035;-67
2022/05/21 04:06:53;;;;;;;6.07;3.28;;;15.40;99.90;;;;;;5049644;28;20094;-66
2022/05/21 04:09:18;;;;;;;6.13;2.72;;;15.30;99.90;;;;;;5050435;28;20506;-66
2022/05/21 04:11:44;;;;;;;4.75;2.70;;;15.50;99.90;;;;;;5031637;28;20029;-66
2022/05/21 04:14:12;;;;;;;3.65;2.70;;;15.50;99.90;;;;;;5033455;28;20029;-66
2022/05/21 04:16:38;;;;;;;4.90;2.95;;;15.40;99.90;;;;;;5035449;28;20495;-67
2022/05/21 04:19:04;;;;;;;3.90;3.28;;;15.40;99.90;;;;;;5054025;28;20033;-68
2022/05/21 04:21:30;;;;;;;3.25;2.63;;;15.50;99.90;;;;;;5036664;28;20043;-67
2022/05/21 04:23:56;;;;;;;4.25;3.03;;;15.50;99.90;;;;;;5053734;28;20025;-68
2022/05/21 04:26:25;;;;;;;5.75;3.08;;;15.30;99.90;;;;;;5036476;28;20123;-67
2022/05/21 04:28:50;;;;;;;4.15;3.10;;;15.40;99.90;;;;;;5035586;28;20116;-67
2022/05/21 04:31:16;;;;;;;7.38;3.53;;;15.40;99.90;;;;;;5036406;28;20060;-67
2022/05/21 04:33:41;;;;;;;5.20;3.10;;;15.30;99.90;;;;;;5053466;28;20104;-67
2022/05/21 04:36:19;;;;;;;6.07;3.35;;;15.30;99.90;;;;;;5055221;28;20017;-71
2022/05/21 04:38:49;;;;;;;4.18;2.92;;;15.10;99.90;;;;;;5037013;28;20031;-66
2022/05/21 04:41:16;;;;;;;4.32;3.20;;;15.20;99.90;;;;;;5037100;28;20379;-67
2022/05/21 04:43:42;;;;;;;4.30;3.05;;;15.10;99.90;;;;;;5053505;28;20462;-68
2022/05/21 04:46:08;;;;;;;4.72;3.17;;;15.10;99.90;;;;;;5054169;28;20099;-67
2022/05/21 04:48:34;;;;;;;6.20;3.20;;;15.10;99.90;;;;;;5036405;28;20037;-67
2022/05/21 04:51:02;;;;;;;5.78;3.22;;;15.00;99.90;;;;;;5054227;28;20035;-69
2022/05/21 04:53:28;;;;;;;4.20;3.03;;;15.00;99.90;;;;;;5054644;28;20032;-68
2022/05/21 04:55:55;;;;;;;5.57;3.47;;;15.10;99.90;;;;;;5053358;28;20111;-67
2022/05/21 04:58:20;;;;;;;5.00;3.70;;;15.10;99.90;;;;;;5054340;28;20119;-66
2022/05/21 05:00:46;;;;;;;7.65;3.60;;;15.10;99.90;;;;;;5053906;28;20079;-67
2022/05/21 05:03:16;;;;;;;4.07;3.38;;;15.10;99.90;;;;;;5036655;28;20063;-69
2022/05/21 05:05:43;;;;;;;2.58;2.33;;;15.20;99.90;;;;;;5035439;28;20155;-58
2022/05/21 05:08:10;;;;;;;10.45;3.13;;;17.20;99.90;;;;;;5053574;28;20041;-59
2022/05/21 05:10:36;;;;;;;3.92;2.50;;;18.20;99.90;;;;;;5053562;28;20078;-58
2022/05/21 05:13:02;;;;;;;4.47;3.00;;;18.80;99.90;;;;;;5034879;28;20025;-68
2022/05/21 05:15:28;;;;;;;5.00;3.10;;;17.70;99.90;;;;;;5051477;28;20045;-69
2022/05/21 05:18:05;;;;;;;2.78;2.40;;;17.00;99.90;;;;;;5049411;28;20041;-71
2022/05/21 05:20:31;;;;;;;3.72;2.65;;;17.60;99.90;;;;;;5052497;28;20029;-71
2022/05/21 05:22:57;;;;;;;4.72;2.55;;;18.20;99.90;;;;;;5032596;28;20128;-71
2022/05/21 05:25:24;;;;;;;3.20;2.70;;;19.10;99.90;;;;;;5052790;28;20309;-71
2022/05/21 05:27:50;;;;;;;6.93;2.47;;;19.00;99.90;;;;;;5052722;28;20478;-70
2022/05/21 05:30:19;;;;;;;8.55;3.00;;;19.10;99.90;;;;;;5053180;28;20025;-69
2022/05/21 05:32:45;;;;;;;3.40;2.92;;;19.30;99.90;;;;;;5052693;28;20029;-68
2022/05/21 05:35:12;;;;;;;2.88;2.58;;;17.80;99.90;;;;;;5049154;28;20036;-67
2022/05/21 05:37:39;;;;;;;14.00;2.90;;;16.80;99.90;;;;;;5033912;28;20121;-70
2022/05/21 05:40:08;;;;;;;6.43;3.15;;;16.50;99.90;;;;;;5033541;28;20112;-70
2022/05/21 05:42:38;;;;;;;3.17;2.35;;;16.40;99.90;;;;;;5014411;28;20041;-59
2022/05/21 05:45:05;;;;;;;2.58;2.30;;;16.30;99.90;;;;;;5031940;28;20475;-58
2022/05/21 05:47:33;;;;;;;2.53;1.63;;;17.00;99.90;;;;;;5032783;28;20026;-59
2022/05/21 05:49:58;;;;;;;4.05;1.60;;;17.80;99.90;;;;;;5014318;28;20032;-59
2022/05/21 05:52:24;;;;;;;6.50;2.00;;;18.10;99.90;;;;;;5014553;28;20367;-59
2022/05/21 05:54:56;;;;;;;3.28;1.70;;;18.10;99.90;;;;;;5031729;28;20148;-58
2022/05/21 05:57:23;;;;;;;2.25;1.85;;;17.80;99.90;;;;;;5032319;28;20044;-68
2022/05/21 05:59:50;;;;;;;1.27;1.00;;;17.20;99.90;;;;;;5031937;28;20028;-67
2022/05/21 06:05:05;;;;;;;3.17;1.65;;;16.60;99.90;;;;;;5031844;28;20060;-68
2022/05/21 06:07:31;;;;;;;3.78;1.50;;;16.30;99.90;;;;;;5014708;28;20034;-68
2022/05/21 06:10:02;;;;;;;3.47;1.27;;;16.40;99.90;;;;;;5013816;28;20032;-67
2022/05/21 06:12:29;;;;;;;9.32;1.52;;;16.40;99.90;;;;;;5032181;28;20491;-67
2022/05/21 06:14:56;;;;;;;2.33;1.45;;;16.20;99.90;;;;;;5013707;28;20029;-69
2022/05/21 06:17:21;;;;;;;2.90;1.38;;;16.10;99.90;;;;;;5014955;28;20064;-68
2022/05/21 06:19:47;;;;;;;4.97;2.60;;;16.20;99.90;;;;;;5015308;28;20103;-71
2022/05/21 06:22:13;;;;;;;2.92;0.90;;;16.20;99.90;;;;;;5015505;28;20092;-68
2022/05/21 06:24:38;;;;;;;3.10;1.17;;;16.20;99.90;;;;;;5014483;28;20561;-68
2022/05/21 06:27:05;;;;;;;1.77;1.00;;;16.40;99.90;;;;;;5013323;28;20060;-69
2022/05/21 06:29:31;;;;;;;5.38;1.10;;;16.40;99.90;;;;;;5033337;28;20096;-68
2022/05/21 06:31:57;;;;;;;3.50;1.00;;;16.50;99.90;;;;;;5031821;28;20089;-69
2022/05/21 06:34:23;;;;;;;3.65;1.33;;;16.10;99.90;;;;;;5032736;28;20095;-69
2022/05/21 06:36:49;;;;;;;2.95;1.30;;;16.20;99.90;;;;;;5013122;28;20036;-69
2022/05/21 06:39:15;;;;;;;2.60;1.35;;;16.40;99.90;;;;;;5014000;28;20363;-69
2022/05/21 06:41:41;;;;;;;3.40;1.10;;;16.40;99.90;;;;;;5014136;28;20030;-68
2022/05/21 06:44:07;;;;;;;2.95;1.02;;;16.20;99.90;;;;;;5032023;28;20095;-71
2022/05/21 06:46:33;;;;;;;3.25;1.17;;;16.40;99.90;;;;;;5014062;28;20025;-69
2022/05/21 06:48:59;;;;;;;2.95;0.77;;;16.50;99.90;;;;;;5030982;28;20033;-69
2022/05/21 06:51:24;;;;;;;2.13;0.82;;;16.40;99.90;;;;;;5031434;28;20447;-68
2022/05/21 06:53:50;;;;;;;5.93;1.33;;;16.50;99.90;;;;;;5031188;28;20061;-68
2022/05/21 06:56:16;;;;;;;4.88;0.73;;;16.30;99.90;;;;;;5014854;28;20085;-68
2022/05/21 06:58:43;;;;;;;4.80;1.30;;;16.30;99.90;;;;;;5031445;28;20144;-68
2022/05/21 07:01:11;;;;;;;2.92;1.13;;;16.50;99.90;;;;;;5031642;28;20033;-68
2022/05/21 07:03:37;;;;;;;2.10;1.10;;;16.50;99.90;;;;;;5030957;28;20040;-68
2022/05/21 07:08:48;;;;;;;2.38;1.02;;;16.50;99.90;;;;;;5031530;28;20044;-67
2022/05/21 07:11:14;;;;;;;4.70;1.67;;;16.50;99.90;;;;;;5013320;28;20029;-69
2022/05/21 07:13:40;;;;;;;3.78;0.82;;;16.50;99.90;;;;;;5031097;28;20454;-71
2022/05/21 07:16:09;;;;;;;3.33;1.10;;;16.50;99.90;;;;;;5030203;28;20144;-70
2022/05/21 07:18:35;;;;;;;6.10;1.05;;;16.60;99.90;;;;;;5030766;28;20068;-68
2022/05/21 07:21:17;;;;;;;1.85;0.73;;;16.60;99.90;;;;;;5030681;28;20060;-73
2022/05/21 07:23:43;;;;;;;1.48;0.63;;;16.80;99.90;;;;;;5031306;28;20067;-71
2022/05/21 07:26:09;;;;;;;9.05;1.42;;;16.90;99.90;;;;;;5012402;28;20041;-69
2022/05/21 07:28:35;;;;;;;7.97;1.35;;;16.90;99.90;;;;;;5012547;28;20029;-69
2022/05/21 07:31:00;;;;;;;5.43;1.10;;;17.60;99.90;;;;;;5029302;28;20048;-69
2022/05/21 07:33:26;;;;;;;9.55;1.23;;;17.90;99.90;;;;;;5031233;28;20029;-68
2022/05/21 07:35:52;;;;;;;14.40;2.40;;;17.50;99.70;;;;;;5015908;28;20127;-70
2022/05/21 07:38:18;;;;;;;3.10;1.00;;;17.90;99.90;;;;;;5030404;28;20033;-70
2022/05/21 07:40:46;;;;;;;2.25;0.73;;;18.20;99.80;;;;;;5030354;28;20159;-70
2022/05/21 07:43:27;;;;;;;4.65;0.85;;;18.50;99.90;;;;;;5030128;28;20036;-70
2022/05/21 07:45:57;;;;;;;3.38;0.80;;;18.50;98.90;;;;;;5012270;28;20240;-70
2022/05/21 07:48:24;;;;;;;7.03;0.73;;;18.70;99.70;;;;;;5030397;28;20029;-71
2022/05/21 07:50:52;;;;;;;4.03;0.80;;;19.10;99.50;;;;;;5015683;28;20536;-71
2022/05/21 07:53:24;;;;;;;4.13;0.73;;;19.20;98.40;;;;;;5016629;28;20033;-68
2022/05/21 07:55:51;;;;;;;2.45;0.88;;;18.90;97.50;;;;;;5034361;28;20084;-70
2022/05/21 07:58:18;;;;;;;3.53;0.73;;;18.80;98.50;;;;;;5016650;28;20034;-71
2022/05/21 08:00:44;;;;;;;4.22;0.60;;;18.30;98.30;;;;;;5016406;28;20037;-71
2022/05/21 08:03:10;;;;;;;4.93;0.90;;;18.10;98.50;;;;;;5015754;28;20030;-69
2022/05/21 08:05:38;;;;;;;7.15;1.55;;;18.30;98.70;;;;;;5032949;28;20025;-69
2022/05/21 08:08:05;;;;;;;3.90;0.88;;;18.40;98.50;;;;;;5033738;28;20053;-69
2022/05/21 08:10:31;;;;;;;3.47;0.90;;;18.40;98.30;;;;;;5016696;28;20109;-79
2022/05/21 08:12:58;;;;;;;1.48;0.85;;;18.30;98.00;;;;;;5032131;28;20459;-68
2022/05/21 08:15:24;;;;;;;7.45;0.93;;;18.20;98.30;;;;;;5012685;28;20137;-71
2022/05/21 08:17:49;;;;;;;3.28;1.08;;;18.30;98.30;;;;;;5013813;28;20218;-70
2022/05/21 08:20:16;;;;;;;4.78;0.80;;;18.70;98.00;;;;;;5029229;28;20030;-69
2022/05/21 08:28:15;;;;;;;2.53;0.60;;;19.70;96.60;;;;;;5013863;28;20076;-71
2022/05/21 08:30:43;;;;;;;2.75;0.50;;;20.00;95.80;;;;;;5013919;28;20097;-70
2022/05/21 08:33:10;;;;;;;4.90;0.73;;;20.20;95.00;;;;;;5028521;28;20357;-70
2022/05/21 08:35:38;;;;;;;4.60;0.95;;;19.80;95.40;;;;;;5028941;28;20159;-68
2022/05/21 08:38:08;;;;;;;7.28;0.90;;;19.50;95.60;;;;;;5027962;28;20039;-70
2022/05/21 08:40:50;;;;;;;3.30;0.90;;;19.70;95.80;;;;;;5029271;28;20041;-69
2022/05/21 08:43:30;;;;;;;3.17;0.60;;;20.10;95.20;;;;;;5029062;28;20063;-70
2022/05/21 08:46:08;;;;;;;3.35;1.00;;;20.00;95.50;;;;;;5028399;28;20025;-70
2022/05/21 08:48:36;;;;;;;4.28;1.02;;;20.10;95.20;;;;;;5013426;28;20120;-70
2022/05/21 08:51:07;;;;;;;3.00;0.65;;;20.20;95.20;;;;;;5027703;28;20026;-71
2022/05/21 08:53:39;;;;;;;5.30;1.05;;;20.40;95.00;;;;;;5013535;28;20098;-70
2022/05/21 08:56:05;;;;;;;2.33;1.05;;;20.30;94.80;;;;;;5012891;28;20112;-72
2022/05/21 08:58:44;;;;;;;6.50;1.35;;;20.10;94.60;;;;;;5013033;28;20042;-71
2022/05/21 09:01:10;;;;;;;2.83;0.90;;;20.70;94.70;;;;;;5026900;28;20387;-71
2022/05/21 09:03:37;;;;;;;4.70;0.85;;;20.80;94.20;;;;;;5011377;28;20026;-70
2022/05/21 09:06:14;;;;;;;4.18;1.02;;;20.60;94.50;;;;;;5012641;28;20030;-71
2022/05/21 09:08:50;;;;;;;5.25;1.00;;;20.30;95.40;;;;;;5028348;28;20037;-69
2022/05/21 09:11:40;;;;;;;4.05;0.82;;;20.30;96.10;;;;;;5012504;28;20080;-69
2022/05/21 09:14:15;;;;;;;11.93;2.63;;;20.40;96.30;;;;;;5012751;28;20018;-71
2022/05/21 09:16:56;;;;;;;5.20;1.25;;;20.30;96.80;;;;;;5029009;28;20049;-70
2022/05/21 09:19:33;;;;;;;3.33;0.90;;;20.40;96.30;;;;;;5032507;28;20033;-70
2022/05/21 09:22:04;;;;;;;6.07;1.75;;;20.50;96.30;;;;;;5014326;28;20380;-69
2022/05/21 09:24:51;;;;;;;2.28;1.00;;;20.50;96.80;;;;;;5015483;28;20052;-70
2022/05/21 09:27:35;;;;;;;7.63;1.02;;;20.40;95.60;;;;;;5032090;28;20113;-70
2022/05/21 09:30:27;;;;;;;3.10;0.80;;;20.80;99.80;;;;;;5013775;28;20386;-69
2022/05/21 09:33:18;;;;;;;7.30;1.08;;;20.80;94.40;;;;;;5031955;28;20029;-71
2022/05/21 09:35:51;;;;;;;4.40;0.88;;;20.90;94.10;;;;;;5017298;28;20402;-70
2022/05/21 09:38:24;;;;;;;5.03;1.05;;;20.90;94.00;;;;;;5031802;28;20037;-70
2022/05/21 09:41:15;;;;;;;4.57;0.80;;;20.80;93.40;;;;;;5031872;28;20164;-68
2022/05/21 09:46:33;;;;;;;2.63;0.65;;;20.10;94.00;;;;;;5032444;28;19975;-68
2022/05/21 09:49:25;;;;;;;2.72;0.65;;;20.30;94.30;;;;;;5031587;28;20455;-70
2022/05/21 09:52:15;;;;;;;1.98;0.52;;;20.70;94.00;;;;;;5014336;28;20029;-69
2022/05/21 09:54:45;;;;;;;6.28;1.08;;;20.90;93.60;;;;;;5030798;28;20113;-69
2022/05/21 09:57:35;;;;;;;3.50;0.70;;;20.50;93.70;;;;;;5030035;28;20049;-69
2022/05/21 10:00:19;;;;;;;4.75;0.70;;;20.40;94.30;;;;;;5031475;28;20129;-70
2022/05/21 10:02:49;;;;;;;4.47;0.82;;;20.40;94.10;;;;;;5030715;28;20021;-69
2022/05/21 10:05:32;;;;;;;5.60;1.08;;;20.30;93.90;;;;;;5013186;28;20586;-69
2022/05/21 10:11:04;;;;;;;6.30;0.90;;;21.40;93.60;;;;;;5030964;28;20099;-74
2022/05/21 10:13:47;;;;;;;7.53;1.10;;;21.40;92.80;;;;;;5013511;28;20040;-69
2022/05/21 10:16:18;;;;;;;4.50;1.00;;;21.20;93.00;;;;;;5030991;28;20041;-70
2022/05/21 10:18:47;;;;;;;;;;;21.00;92.80;;;;;;5014458;28;20475;-70
2022/05/21 10:21:29;;;;;;;5.45;0.95;;;21.00;92.70;;;;;;5030766;28;19932;-70
2022/05/21 10:24:05;;;;;;;8.18;1.38;;;21.50;92.80;;;;;;5030012;28;20168;-68
2022/05/21 10:27:01;;;;;;;3.22;0.57;;;22.00;92.70;;;;;;5031620;28;20050;-68
2022/05/21 10:29:33;;;;;;;2.38;0.60;;;22.30;91.50;;;;;;5031055;28;20064;-69
2022/05/21 10:32:19;;;;;;;3.55;0.52;;;22.20;92.10;;;;;;5012844;28;20124;-70
2022/05/21 10:35:14;;;;;;;5.97;0.65;;;22.40;91.70;;;;;;5030891;28;20473;-69
2022/05/21 10:38:06;;;;;;;6.00;1.95;;;22.50;91.00;;;;;;5031064;28;20045;-69
2022/05/21 10:40:54;;;;;;;2.08;0.50;;;22.90;90.20;;;;;;5013239;28;20021;-70
2022/05/21 10:43:57;;;;;;;1.73;0.63;;;22.80;90.00;;;;;;5011830;28;20025;-70
2022/05/21 10:46:36;;;;;;;3.30;0.40;;;23.10;90.30;;;;;;5031467;28;20021;-68
2022/05/21 10:49:08;;;;;;;3.63;0.80;;;23.60;88.30;;;;;;5029920;28;20056;-71
2022/05/21 10:51:57;;;;;;;4.05;0.63;;;23.50;86.60;;;;;;5012953;28;20036;-69
2022/05/21 10:54:38;;;;;;;2.42;0.77;;;23.10;87.70;;;;;;5029937;28;20036;-69
2022/05/21 10:57:23;;;;;;;2.60;0.55;;;22.90;88.10;;;;;;5029827;28;20034;-70
2022/05/21 10:59:55;;;;;;;1.33;0.60;;;22.80;88.40;;;;;;5030199;28;20033;-69
2022/05/21 11:02:31;;;;;;;2.25;0.73;;;22.70;89.30;;;;;;5029827;28;20119;-69
2022/05/21 11:05:20;;;;;;;2.85;1.00;;;22.60;89.00;;;;;;5012062;28;20069;-69
2022/05/21 11:08:01;;;;;;;2.42;0.40;;;22.00;90.00;;;;;;5011806;28;20367;-70
2022/05/21 11:10:46;;;;;;;2.85;0.70;;;22.30;88.20;;;;;;5030092;28;20366;-69
2022/05/21 11:13:19;;;;;;;3.22;0.70;;;22.00;88.30;;;;;;5011862;28;20025;-70
2022/05/21 11:15:56;;;;;;;6.88;0.60;;;21.70;88.70;;;;;;5011908;28;20069;-69
2022/05/21 11:18:30;;;;;;;3.85;0.45;;;21.70;89.30;;;;;;5029349;28;20444;-69
2022/05/21 11:21:06;;;;;;;2.83;0.52;;;22.00;89.70;;;;;;5012511;28;20025;-69
2022/05/21 11:23:54;;;;;;;3.38;0.63;;;22.40;89.00;;;;;;5012018;28;20035;-69
2022/05/21 11:26:51;;;;;;;2.33;0.60;;;22.60;88.10;;;;;;5011494;28;20149;-69
2022/05/21 11:29:34;;;;;;;2.15;0.65;;;22.40;88.00;;;;;;5028179;28;20048;-69
2022/05/21 11:37:53;;;;;;;2.88;0.60;;;22.00;88.80;;;;;;5029928;28;20040;-69
2022/05/21 11:40:49;;;;;;;6.10;1.13;;;22.60;88.30;;;;;;5029070;28;20450;-69
2022/05/21 11:43:19;;;;;;;6.28;0.82;;;23.30;86.20;;;;;;5011660;28;20033;-69
2022/05/21 11:46:11;;;;;;;1.27;0.60;;;23.30;86.20;;;;;;5030534;28;20037;-73
2022/05/21 11:48:37;;;;;;;3.67;0.65;;;23.40;83.20;;;;;;5012417;28;20080;-70
2022/05/21 11:51:30;;;;;;;6.60;0.55;;;23.50;80.40;;;;;;5011962;28;20491;-72
2022/05/21 11:53:56;;;;;;;4.35;1.13;;;23.30;81.10;;;;;;5027196;28;20084;-70
2022/05/21 11:56:23;;;;;;;8.38;1.02;;;22.80;80.90;;;;;;5029226;28;20394;-68
2022/05/21 11:58:58;;;;;;;1.52;0.63;;;22.70;82.30;;;;;;5030104;28;20099;-70
2022/05/21 12:01:41;;;;;;;2.90;0.73;;;22.50;83.30;;;;;;5029305;28;20052;-70
2022/05/21 12:04:21;;;;;;;1.70;0.68;;;22.80;83.80;;;;;;5011837;28;20021;-69
2022/05/21 12:06:47;;;;;;;2.05;0.50;;;22.60;83.00;;;;;;5029798;28;20087;-70
2022/05/21 12:09:34;;;;;;;3.80;0.80;;;22.90;82.00;;;;;;5029439;28;20420;-70
2022/05/21 12:12:21;;;;;;;1.98;0.57;;;22.50;81.60;;;;;;5029741;28;20048;-69
2022/05/21 12:14:56;;;;;;;7.10;1.25;;;22.40;81.70;;;;;;5030419;28;20116;-69
2022/05/21 12:17:52;;;;;;;6.43;1.05;;;22.50;82.20;;;;;;5027720;28;20029;-70
2022/05/21 12:20:40;;;;;;;4.30;0.68;;;23.00;81.30;;;;;;5011295;28;20112;-69
2022/05/21 12:23:17;;;;;;;9.68;1.83;;;23.00;81.80;;;;;;5027531;28;20121;-69
2022/05/21 12:25:43;;;;;;;2.47;0.90;;;23.10;82.30;;;;;;5029172;28;20029;-70
2022/05/21 12:28:11;;;;;;;2.65;0.90;;;23.20;81.90;;;;;;5010529;28;20033;-69
2022/05/21 12:30:37;;;;;;;1.83;0.52;;;23.70;80.40;;;;;;5029501;28;20100;-68
2022/05/21 12:33:06;;;;;;;2.75;0.98;;;23.70;80.00;;;;;;5029477;28;20095;-70
2022/05/21 12:36:06;;;;;;;3.03;0.60;;;23.90;81.20;;;;;;5013208;28;20470;-69
2022/05/21 12:38:36;;;;;;;4.25;1.20;;;24.30;79.00;;;;;;5015226;28;20119;-69
2022/05/21 12:41:18;;;;;;;5.32;1.30;;;24.40;80.00;;;;;;5015590;28;20112;-69
2022/05/21 12:43:47;;;;;;;2.28;0.50;;;24.70;83.80;;;;;;5015422;28;20458;-68
2022/05/21 12:46:30;;;;;;;2.85;0.38;;;24.50;82.10;;;;;;5032405;28;20048;-70
2022/05/21 12:48:59;;;;;;;1.65;0.60;;;24.20;77.30;;;;;;5032978;28;20061;-70
2022/05/21 12:51:36;;;;;;;7.28;0.77;;;23.60;77.90;;;;;;5032434;28;20381;-69
2022/05/21 12:54:05;;;;;;;6.05;0.82;;;23.30;78.70;;;;;;5032299;28;20125;-70
2022/05/21 12:56:34;;;;;;;5.03;0.60;;;23.20;80.10;;;;;;5031272;28;20370;-70
2022/05/21 12:59:04;;;;;;;2.42;0.50;;;23.50;79.40;;;;;;5014761;28;20038;-70
2022/05/21 13:01:31;;;;;;;6.78;0.88;;;23.40;79.50;;;;;;5033049;28;20029;-70
2022/05/21 13:03:59;;;;;;;3.53;1.23;;;23.70;78.30;;;;;;5032386;28;20099;-70
2022/05/21 13:06:32;;;;;;;4.47;0.80;;;23.40;79.30;;;;;;5031755;28;20124;-69
2022/05/21 13:09:01;;;;;;;2.30;0.70;;;23.50;78.00;;;;;;5032238;28;20059;-68
2022/05/21 13:11:41;;;;;;;2.22;0.77;;;23.70;78.50;;;;;;5029572;28;20036;-70
2022/05/21 13:14:15;;;;;;;6.80;1.20;;;23.90;78.20;;;;;;5029944;28;20132;-74
2022/05/21 13:16:51;;;;;;;1.15;0.45;;;23.40;78.10;;;;;;5031782;28;20453;-68
2022/05/21 13:19:55;;;;;;;3.10;0.75;;;23.30;78.60;;;;;;5031484;28;20025;-70
2022/05/21 13:22:55;;;;;;;1.67;0.50;;;23.10;78.90;;;;;;5010990;28;20116;-69
2022/05/21 13:25:22;;;;;;;1.83;0.52;;;23.70;78.00;;;;;;5020537;28;20486;-71
2022/05/21 13:27:52;;;;;;;4.43;0.85;;;23.90;77.40;;;;;;5031294;28;20064;-69
2022/05/21 13:30:21;;;;;;;3.45;1.08;;;23.70;77.20;;;;;;5012892;28;20060;-71
2022/05/21 13:32:59;;;;;;;1.83;0.60;;;24.10;77.40;;;;;;5031395;28;20052;-68
2022/05/21 13:35:40;;;;;;;2.13;0.82;;;24.30;76.90;;;;;;5030668;28;20033;-69
2022/05/21 13:38:11;;;;;;;3.33;0.80;;;24.40;76.30;;;;;;5031343;28;20363;-70
2022/05/21 13:40:50;;;;;;;3.63;0.47;;;24.30;75.50;;;;;;5030833;28;20400;-69